sensor_id;sensor_type;location;lat;lon;timestamp;P1;durP1;ratioP1;P2;durP2;ratioP2
33184;SDS011;19550;42.872;25.494;2022-10-16T00:00:38;33.88;;;15.30;;
33184;SDS011;19550;42.872;25.494;2022-10-16T00:03:06;36.03;;;16.03;;
33184;SDS011;19550;42.872;25.494;2022-10-16T00:05:37;26.98;;;14.35;;
33184;SDS011;19550;42.872;25.494;2022-10-16T00:08:05;26.40;;;15.40;;
33184;SDS011;19550;42.872;25.494;2022-10-16T00:10:33;22.52;;;15.27;;
33184;SDS011;19550;42.872;25.494;2022-10-16T00:13:01;24.70;;;12.48;;
33184;SDS011;19550;42.872;25.494;2022-10-16T00:15:28;20.77;;;12.95;;
33184;SDS011;19550;42.872;25.494;2022-10-16T00:17:55;38.95;;;14.48;;
33184;SDS011;19550;42.872;25.494;2022-10-16T00:20:22;33.75;;;14.70;;
33184;SDS011;19550;42.872;25.494;2022-10-16T00:22:49;49.35;;;19.67;;
33184;SDS011;19550;42.872;25.494;2022-10-16T00:25:16;28.00;;;13.90;;
33184;SDS011;19550;42.872;25.494;2022-10-16T00:27:43;44.50;;;23.65;;
33184;SDS011;19550;42.872;25.494;2022-10-16T00:30:11;28.17;;;16.98;;
33184;SDS011;19550;42.872;25.494;2022-10-16T00:32:38;26.90;;;15.57;;
33184;SDS011;19550;42.872;25.494;2022-10-16T00:35:05;18.92;;;13.43;;
33184;SDS011;19550;42.872;25.494;2022-10-16T00:37:33;24.65;;;15.55;;
33184;SDS011;19550;42.872;25.494;2022-10-16T00:39:59;20.20;;;13.32;;
33184;SDS011;19550;42.872;25.494;2022-10-16T00:42:26;16.35;;;12.32;;
33184;SDS011;19550;42.872;25.494;2022-10-16T00:44:53;20.15;;;13.18;;
33184;SDS011;19550;42.872;25.494;2022-10-16T00:47:24;22.58;;;13.48;;
33184;SDS011;19550;42.872;25.494;2022-10-16T00:49:56;17.65;;;11.93;;
33184;SDS011;19550;42.872;25.494;2022-10-16T00:52:26;21.02;;;13.88;;
33184;SDS011;19550;42.872;25.494;2022-10-16T00:54:53;27.55;;;13.93;;
33184;SDS011;19550;42.872;25.494;2022-10-16T00:57:21;17.98;;;13.18;;
33184;SDS011;19550;42.872;25.494;2022-10-16T00:59:49;19.30;;;13.63;;
33184;SDS011;19550;42.872;25.494;2022-10-16T01:02:16;22.67;;;13.43;;
33184;SDS011;19550;42.872;25.494;2022-10-16T01:04:46;19.27;;;13.48;;
33184;SDS011;19550;42.872;25.494;2022-10-16T01:07:20;21.35;;;14.38;;
33184;SDS011;19550;42.872;25.494;2022-10-16T01:10:02;25.88;;;14.73;;
33184;SDS011;19550;42.872;25.494;2022-10-16T01:12:36;60.40;;;15.15;;
33184;SDS011;19550;42.872;25.494;2022-10-16T01:15:08;29.77;;;14.68;;
33184;SDS011;19550;42.872;25.494;2022-10-16T01:17:43;22.63;;;13.95;;
33184;SDS011;19550;42.872;25.494;2022-10-16T01:20:18;17.48;;;12.50;;
33184;SDS011;19550;42.872;25.494;2022-10-16T01:22:57;17.58;;;12.77;;
33184;SDS011;19550;42.872;25.494;2022-10-16T01:25:36;18.33;;;13.55;;
33184;SDS011;19550;42.872;25.494;2022-10-16T01:28:17;18.38;;;11.65;;
33184;SDS011;19550;42.872;25.494;2022-10-16T01:30:48;19.75;;;12.50;;
33184;SDS011;19550;42.872;25.494;2022-10-16T01:33:18;20.63;;;13.23;;
33184;SDS011;19550;42.872;25.494;2022-10-16T01:35:51;18.05;;;12.60;;
33184;SDS011;19550;42.872;25.494;2022-10-16T01:38:21;17.35;;;12.65;;
33184;SDS011;19550;42.872;25.494;2022-10-16T01:40:55;18.05;;;11.20;;
33184;SDS011;19550;42.872;25.494;2022-10-16T01:43:28;19.50;;;12.10;;
33184;SDS011;19550;42.872;25.494;2022-10-16T01:45:59;18.25;;;11.68;;
33184;SDS011;19550;42.872;25.494;2022-10-16T01:48:27;18.85;;;11.98;;
33184;SDS011;19550;42.872;25.494;2022-10-16T01:50:57;21.25;;;12.27;;
33184;SDS011;19550;42.872;25.494;2022-10-16T01:53:29;20.75;;;11.63;;
33184;SDS011;19550;42.872;25.494;2022-10-16T01:55:57;18.25;;;10.63;;
33184;SDS011;19550;42.872;25.494;2022-10-16T01:58:25;19.27;;;11.18;;
33184;SDS011;19550;42.872;25.494;2022-10-16T02:00:57;18.52;;;12.10;;
33184;SDS011;19550;42.872;25.494;2022-10-16T02:03:24;18.00;;;10.80;;
33184;SDS011;19550;42.872;25.494;2022-10-16T02:05:51;19.52;;;11.60;;
33184;SDS011;19550;42.872;25.494;2022-10-16T02:08:20;26.23;;;12.55;;
33184;SDS011;19550;42.872;25.494;2022-10-16T02:10:49;18.20;;;11.32;;
33184;SDS011;19550;42.872;25.494;2022-10-16T02:13:17;18.25;;;12.85;;
33184;SDS011;19550;42.872;25.494;2022-10-16T02:15:49;23.95;;;12.77;;
33184;SDS011;19550;42.872;25.494;2022-10-16T02:18:17;17.25;;;11.55;;
33184;SDS011;19550;42.872;25.494;2022-10-16T02:20:45;17.73;;;10.77;;
33184;SDS011;19550;42.872;25.494;2022-10-16T02:23:19;20.42;;;11.88;;
33184;SDS011;19550;42.872;25.494;2022-10-16T02:25:54;14.57;;;10.75;;
33184;SDS011;19550;42.872;25.494;2022-10-16T02:28:26;16.73;;;11.48;;
33184;SDS011;19550;42.872;25.494;2022-10-16T02:30:59;16.50;;;11.13;;
33184;SDS011;19550;42.872;25.494;2022-10-16T02:33:31;21.80;;;11.45;;
33184;SDS011;19550;42.872;25.494;2022-10-16T02:35:59;17.48;;;11.68;;
33184;SDS011;19550;42.872;25.494;2022-10-16T02:38:26;15.60;;;10.52;;
33184;SDS011;19550;42.872;25.494;2022-10-16T02:40:55;16.23;;;11.18;;
33184;SDS011;19550;42.872;25.494;2022-10-16T02:43:22;19.85;;;12.07;;
33184;SDS011;19550;42.872;25.494;2022-10-16T02:45:51;21.50;;;10.70;;
33184;SDS011;19550;42.872;25.494;2022-10-16T02:48:18;15.50;;;11.00;;
33184;SDS011;19550;42.872;25.494;2022-10-16T02:50:46;17.55;;;11.10;;
33184;SDS011;19550;42.872;25.494;2022-10-16T02:53:13;14.25;;;10.63;;
33184;SDS011;19550;42.872;25.494;2022-10-16T02:55:40;17.83;;;10.77;;
33184;SDS011;19550;42.872;25.494;2022-10-16T02:58:07;16.02;;;11.88;;
33184;SDS011;19550;42.872;25.494;2022-10-16T03:00:33;14.70;;;9.95;;
33184;SDS011;19550;42.872;25.494;2022-10-16T03:03:00;14.88;;;10.00;;
33184;SDS011;19550;42.872;25.494;2022-10-16T03:05:27;20.63;;;10.85;;
33184;SDS011;19550;42.872;25.494;2022-10-16T03:07:55;16.48;;;10.60;;
33184;SDS011;19550;42.872;25.494;2022-10-16T03:10:25;16.33;;;10.55;;
33184;SDS011;19550;42.872;25.494;2022-10-16T03:12:52;13.10;;;9.93;;
33184;SDS011;19550;42.872;25.494;2022-10-16T03:15:18;19.02;;;10.80;;
33184;SDS011;19550;42.872;25.494;2022-10-16T03:17:45;19.98;;;10.23;;
33184;SDS011;19550;42.872;25.494;2022-10-16T03:20:12;17.02;;;10.93;;
33184;SDS011;19550;42.872;25.494;2022-10-16T03:22:39;21.30;;;10.07;;
33184;SDS011;19550;42.872;25.494;2022-10-16T03:25:08;15.38;;;9.73;;
33184;SDS011;19550;42.872;25.494;2022-10-16T03:27:34;15.40;;;10.45;;
33184;SDS011;19550;42.872;25.494;2022-10-16T03:30:02;21.77;;;11.18;;
33184;SDS011;19550;42.872;25.494;2022-10-16T03:32:29;15.95;;;10.30;;
33184;SDS011;19550;42.872;25.494;2022-10-16T03:34:56;17.42;;;10.05;;
33184;SDS011;19550;42.872;25.494;2022-10-16T03:37:23;17.42;;;10.43;;
33184;SDS011;19550;42.872;25.494;2022-10-16T03:39:50;16.75;;;10.73;;
33184;SDS011;19550;42.872;25.494;2022-10-16T03:42:18;14.20;;;9.82;;
33184;SDS011;19550;42.872;25.494;2022-10-16T03:44:45;14.38;;;10.15;;
33184;SDS011;19550;42.872;25.494;2022-10-16T03:47:12;14.45;;;10.45;;
33184;SDS011;19550;42.872;25.494;2022-10-16T03:49:39;14.82;;;9.90;;
33184;SDS011;19550;42.872;25.494;2022-10-16T03:52:06;18.67;;;11.07;;
33184;SDS011;19550;42.872;25.494;2022-10-16T03:54:32;16.40;;;10.40;;
33184;SDS011;19550;42.872;25.494;2022-10-16T03:56:59;19.27;;;10.75;;
33184;SDS011;19550;42.872;25.494;2022-10-16T03:59:27;21.73;;;15.80;;
33184;SDS011;19550;42.872;25.494;2022-10-16T04:01:54;17.48;;;10.95;;
33184;SDS011;19550;42.872;25.494;2022-10-16T04:04:21;19.67;;;14.07;;
33184;SDS011;19550;42.872;25.494;2022-10-16T04:06:48;19.52;;;13.85;;
33184;SDS011;19550;42.872;25.494;2022-10-16T04:09:15;15.57;;;10.65;;
33184;SDS011;19550;42.872;25.494;2022-10-16T04:11:42;17.23;;;12.02;;
33184;SDS011;19550;42.872;25.494;2022-10-16T04:14:08;18.50;;;11.50;;
33184;SDS011;19550;42.872;25.494;2022-10-16T04:16:37;14.98;;;10.55;;
33184;SDS011;19550;42.872;25.494;2022-10-16T04:19:04;14.25;;;10.10;;
33184;SDS011;19550;42.872;25.494;2022-10-16T04:21:30;19.35;;;11.50;;
33184;SDS011;19550;42.872;25.494;2022-10-16T04:23:57;16.13;;;11.50;;
33184;SDS011;19550;42.872;25.494;2022-10-16T04:26:24;22.90;;;10.77;;
33184;SDS011;19550;42.872;25.494;2022-10-16T04:28:51;16.77;;;11.02;;
33184;SDS011;19550;42.872;25.494;2022-10-16T04:31:19;19.00;;;14.23;;
33184;SDS011;19550;42.872;25.494;2022-10-16T04:33:47;17.70;;;11.77;;
33184;SDS011;19550;42.872;25.494;2022-10-16T04:36:14;13.75;;;10.30;;
33184;SDS011;19550;42.872;25.494;2022-10-16T04:38:41;16.95;;;10.85;;
33184;SDS011;19550;42.872;25.494;2022-10-16T04:41:08;20.00;;;12.07;;
33184;SDS011;19550;42.872;25.494;2022-10-16T04:43:35;25.48;;;15.73;;
33184;SDS011;19550;42.872;25.494;2022-10-16T04:46:02;33.97;;;20.02;;
33184;SDS011;19550;42.872;25.494;2022-10-16T04:48:29;23.63;;;14.85;;
33184;SDS011;19550;42.872;25.494;2022-10-16T04:50:58;20.58;;;13.25;;
33184;SDS011;19550;42.872;25.494;2022-10-16T04:53:25;26.90;;;18.33;;
33184;SDS011;19550;42.872;25.494;2022-10-16T04:55:52;25.65;;;14.73;;
33184;SDS011;19550;42.872;25.494;2022-10-16T04:58:19;26.00;;;18.40;;
33184;SDS011;19550;42.872;25.494;2022-10-16T05:00:46;23.63;;;17.05;;
33184;SDS011;19550;42.872;25.494;2022-10-16T05:03:12;26.50;;;16.63;;
33184;SDS011;19550;42.872;25.494;2022-10-16T05:05:42;17.75;;;11.63;;
33184;SDS011;19550;42.872;25.494;2022-10-16T05:08:11;18.52;;;12.48;;
33184;SDS011;19550;42.872;25.494;2022-10-16T05:10:38;17.70;;;11.10;;
33184;SDS011;19550;42.872;25.494;2022-10-16T05:13:07;23.70;;;14.02;;
33184;SDS011;19550;42.872;25.494;2022-10-16T05:15:34;19.50;;;12.63;;
33184;SDS011;19550;42.872;25.494;2022-10-16T05:18:00;31.50;;;19.17;;
33184;SDS011;19550;42.872;25.494;2022-10-16T05:20:27;36.03;;;21.23;;
33184;SDS011;19550;42.872;25.494;2022-10-16T05:22:54;38.78;;;24.52;;
33184;SDS011;19550;42.872;25.494;2022-10-16T05:25:22;42.45;;;25.23;;
33184;SDS011;19550;42.872;25.494;2022-10-16T05:27:50;35.17;;;23.55;;
33184;SDS011;19550;42.872;25.494;2022-10-16T05:30:17;38.58;;;26.60;;
33184;SDS011;19550;42.872;25.494;2022-10-16T05:32:46;34.55;;;21.88;;
33184;SDS011;19550;42.872;25.494;2022-10-16T05:35:13;30.20;;;21.98;;
33184;SDS011;19550;42.872;25.494;2022-10-16T05:37:40;39.17;;;27.15;;
33184;SDS011;19550;42.872;25.494;2022-10-16T05:40:07;56.88;;;36.05;;
33184;SDS011;19550;42.872;25.494;2022-10-16T05:42:36;53.15;;;31.63;;
33184;SDS011;19550;42.872;25.494;2022-10-16T05:45:03;46.70;;;28.63;;
33184;SDS011;19550;42.872;25.494;2022-10-16T05:47:31;41.97;;;26.38;;
33184;SDS011;19550;42.872;25.494;2022-10-16T05:49:58;42.40;;;25.30;;
33184;SDS011;19550;42.872;25.494;2022-10-16T05:52:26;37.67;;;24.13;;
33184;SDS011;19550;42.872;25.494;2022-10-16T05:54:53;39.38;;;25.27;;
33184;SDS011;19550;42.872;25.494;2022-10-16T05:57:20;41.03;;;24.20;;
33184;SDS011;19550;42.872;25.494;2022-10-16T05:59:48;34.05;;;23.48;;
33184;SDS011;19550;42.872;25.494;2022-10-16T06:02:15;34.08;;;22.70;;
33184;SDS011;19550;42.872;25.494;2022-10-16T06:04:42;37.08;;;25.85;;
33184;SDS011;19550;42.872;25.494;2022-10-16T06:07:09;36.67;;;24.63;;
33184;SDS011;19550;42.872;25.494;2022-10-16T06:09:35;36.78;;;22.70;;
33184;SDS011;19550;42.872;25.494;2022-10-16T06:12:02;34.70;;;23.15;;
33184;SDS011;19550;42.872;25.494;2022-10-16T06:14:29;47.75;;;28.90;;
33184;SDS011;19550;42.872;25.494;2022-10-16T06:16:58;34.50;;;22.75;;
33184;SDS011;19550;42.872;25.494;2022-10-16T06:19:24;34.78;;;23.02;;
33184;SDS011;19550;42.872;25.494;2022-10-16T06:21:51;33.72;;;23.58;;
33184;SDS011;19550;42.872;25.494;2022-10-16T06:24:18;38.97;;;24.23;;
33184;SDS011;19550;42.872;25.494;2022-10-16T06:26:45;40.95;;;24.65;;
33184;SDS011;19550;42.872;25.494;2022-10-16T06:29:12;34.33;;;23.50;;
33184;SDS011;19550;42.872;25.494;2022-10-16T06:31:39;33.03;;;23.88;;
33184;SDS011;19550;42.872;25.494;2022-10-16T06:34:08;31.30;;;23.90;;
33184;SDS011;19550;42.872;25.494;2022-10-16T06:36:36;57.88;;;47.67;;
33184;SDS011;19550;42.872;25.494;2022-10-16T06:39:03;66.68;;;46.40;;
33184;SDS011;19550;42.872;25.494;2022-10-16T06:41:32;23.10;;;15.93;;
33184;SDS011;19550;42.872;25.494;2022-10-16T06:44:00;25.92;;;15.50;;
33184;SDS011;19550;42.872;25.494;2022-10-16T06:46:26;26.08;;;17.63;;
33184;SDS011;19550;42.872;25.494;2022-10-16T06:48:53;28.77;;;20.80;;
33184;SDS011;19550;42.872;25.494;2022-10-16T06:51:22;30.40;;;24.42;;
33184;SDS011;19550;42.872;25.494;2022-10-16T06:53:50;25.92;;;17.65;;
33184;SDS011;19550;42.872;25.494;2022-10-16T06:56:20;27.77;;;19.85;;
33184;SDS011;19550;42.872;25.494;2022-10-16T06:58:48;26.50;;;18.98;;
33184;SDS011;19550;42.872;25.494;2022-10-16T07:01:17;26.58;;;18.65;;
33184;SDS011;19550;42.872;25.494;2022-10-16T07:03:45;23.03;;;16.47;;
33184;SDS011;19550;42.872;25.494;2022-10-16T07:06:13;23.48;;;15.38;;
33184;SDS011;19550;42.872;25.494;2022-10-16T07:08:43;22.83;;;15.32;;
33184;SDS011;19550;42.872;25.494;2022-10-16T07:13:39;21.95;;;15.35;;
33184;SDS011;19550;42.872;25.494;2022-10-16T07:16:09;20.48;;;14.38;;
33184;SDS011;19550;42.872;25.494;2022-10-16T07:18:37;24.67;;;14.05;;
33184;SDS011;19550;42.872;25.494;2022-10-16T07:21:05;21.58;;;14.95;;
33184;SDS011;19550;42.872;25.494;2022-10-16T07:23:33;23.67;;;13.50;;
33184;SDS011;19550;42.872;25.494;2022-10-16T07:26:01;23.67;;;15.93;;
33184;SDS011;19550;42.872;25.494;2022-10-16T07:28:29;19.35;;;12.77;;
33184;SDS011;19550;42.872;25.494;2022-10-16T07:30:59;19.92;;;15.57;;
33184;SDS011;19550;42.872;25.494;2022-10-16T07:33:27;25.55;;;18.50;;
33184;SDS011;19550;42.872;25.494;2022-10-16T07:35:55;33.65;;;22.77;;
33184;SDS011;19550;42.872;25.494;2022-10-16T07:38:22;39.10;;;26.17;;
33184;SDS011;19550;42.872;25.494;2022-10-16T07:40:55;26.05;;;17.58;;
33184;SDS011;19550;42.872;25.494;2022-10-16T07:43:24;25.17;;;15.55;;
33184;SDS011;19550;42.872;25.494;2022-10-16T07:45:52;27.95;;;15.75;;
33184;SDS011;19550;42.872;25.494;2022-10-16T07:48:20;25.67;;;14.48;;
33184;SDS011;19550;42.872;25.494;2022-10-16T07:50:47;22.52;;;11.07;;
33184;SDS011;19550;42.872;25.494;2022-10-16T07:53:13;14.93;;;8.75;;
33184;SDS011;19550;42.872;25.494;2022-10-16T07:55:41;13.77;;;9.90;;
33184;SDS011;19550;42.872;25.494;2022-10-16T07:58:08;13.30;;;7.97;;
33184;SDS011;19550;42.872;25.494;2022-10-16T08:00:37;13.32;;;7.80;;
33184;SDS011;19550;42.872;25.494;2022-10-16T08:03:04;15.30;;;10.60;;
33184;SDS011;19550;42.872;25.494;2022-10-16T08:05:31;23.05;;;12.77;;
33184;SDS011;19550;42.872;25.494;2022-10-16T08:08:00;27.40;;;12.55;;
33184;SDS011;19550;42.872;25.494;2022-10-16T08:10:27;18.73;;;12.57;;
33184;SDS011;19550;42.872;25.494;2022-10-16T08:12:56;29.55;;;12.90;;
33184;SDS011;19550;42.872;25.494;2022-10-16T08:15:23;24.10;;;14.50;;
33184;SDS011;19550;42.872;25.494;2022-10-16T08:17:58;28.35;;;19.65;;
33184;SDS011;19550;42.872;25.494;2022-10-16T08:20:26;27.30;;;17.98;;
33184;SDS011;19550;42.872;25.494;2022-10-16T08:22:54;24.45;;;16.08;;
33184;SDS011;19550;42.872;25.494;2022-10-16T08:25:21;21.75;;;13.95;;
33184;SDS011;19550;42.872;25.494;2022-10-16T08:27:49;23.42;;;16.00;;
33184;SDS011;19550;42.872;25.494;2022-10-16T08:30:16;22.67;;;16.75;;
33184;SDS011;19550;42.872;25.494;2022-10-16T08:32:45;28.65;;;20.38;;
33184;SDS011;19550;42.872;25.494;2022-10-16T08:35:13;24.77;;;16.77;;
33184;SDS011;19550;42.872;25.494;2022-10-16T08:37:41;24.77;;;16.40;;
33184;SDS011;19550;42.872;25.494;2022-10-16T08:40:14;27.20;;;16.30;;
33184;SDS011;19550;42.872;25.494;2022-10-16T08:42:52;26.20;;;19.08;;
33184;SDS011;19550;42.872;25.494;2022-10-16T08:45:41;16.52;;;11.38;;
33184;SDS011;19550;42.872;25.494;2022-10-16T08:48:16;25.77;;;18.40;;
33184;SDS011;19550;42.872;25.494;2022-10-16T08:50:49;15.57;;;9.65;;
33184;SDS011;19550;42.872;25.494;2022-10-16T08:53:18;13.05;;;8.18;;
33184;SDS011;19550;42.872;25.494;2022-10-16T08:55:49;12.23;;;7.30;;
33184;SDS011;19550;42.872;25.494;2022-10-16T08:58:18;14.77;;;7.35;;
33184;SDS011;19550;42.872;25.494;2022-10-16T09:00:46;10.50;;;7.22;;
33184;SDS011;19550;42.872;25.494;2022-10-16T09:03:22;9.80;;;7.07;;
33184;SDS011;19550;42.872;25.494;2022-10-16T09:06:02;15.20;;;8.48;;
33184;SDS011;19550;42.872;25.494;2022-10-16T09:08:48;10.25;;;6.90;;
33184;SDS011;19550;42.872;25.494;2022-10-16T09:11:31;12.23;;;6.68;;
33184;SDS011;19550;42.872;25.494;2022-10-16T09:14:07;13.50;;;6.20;;
33184;SDS011;19550;42.872;25.494;2022-10-16T09:16:51;12.98;;;6.32;;
33184;SDS011;19550;42.872;25.494;2022-10-16T09:19:24;7.57;;;5.53;;
33184;SDS011;19550;42.872;25.494;2022-10-16T09:21:57;21.45;;;5.18;;
33184;SDS011;19550;42.872;25.494;2022-10-16T09:24:29;10.80;;;5.78;;
33184;SDS011;19550;42.872;25.494;2022-10-16T09:26:56;7.47;;;5.13;;
33184;SDS011;19550;42.872;25.494;2022-10-16T09:29:23;14.10;;;5.80;;
33184;SDS011;19550;42.872;25.494;2022-10-16T09:31:50;13.43;;;5.35;;
33184;SDS011;19550;42.872;25.494;2022-10-16T09:34:20;12.43;;;5.55;;
33184;SDS011;19550;42.872;25.494;2022-10-16T09:36:55;7.82;;;4.80;;
33184;SDS011;19550;42.872;25.494;2022-10-16T09:39:25;12.93;;;5.80;;
33184;SDS011;19550;42.872;25.494;2022-10-16T09:41:52;8.40;;;5.78;;
33184;SDS011;19550;42.872;25.494;2022-10-16T09:44:21;8.50;;;5.28;;
33184;SDS011;19550;42.872;25.494;2022-10-16T09:47:00;11.88;;;4.55;;
33184;SDS011;19550;42.872;25.494;2022-10-16T09:49:28;15.60;;;5.35;;
33184;SDS011;19550;42.872;25.494;2022-10-16T09:52:03;9.23;;;5.00;;
33184;SDS011;19550;42.872;25.494;2022-10-16T09:54:31;14.68;;;5.38;;
33184;SDS011;19550;42.872;25.494;2022-10-16T09:57:04;11.68;;;4.65;;
33184;SDS011;19550;42.872;25.494;2022-10-16T09:59:32;12.57;;;4.75;;
33184;SDS011;19550;42.872;25.494;2022-10-16T10:02:01;10.48;;;5.05;;
33184;SDS011;19550;42.872;25.494;2022-10-16T10:04:37;10.25;;;5.82;;
33184;SDS011;19550;42.872;25.494;2022-10-16T10:07:14;7.18;;;5.85;;
33184;SDS011;19550;42.872;25.494;2022-10-16T10:09:44;9.95;;;7.10;;
33184;SDS011;19550;42.872;25.494;2022-10-16T10:12:19;7.07;;;5.43;;
33184;SDS011;19550;42.872;25.494;2022-10-16T10:14:48;7.53;;;4.80;;
33184;SDS011;19550;42.872;25.494;2022-10-16T10:17:17;13.25;;;5.75;;
33184;SDS011;19550;42.872;25.494;2022-10-16T10:19:49;14.63;;;9.87;;
33184;SDS011;19550;42.872;25.494;2022-10-16T10:22:21;8.80;;;5.35;;
33184;SDS011;19550;42.872;25.494;2022-10-16T10:24:59;7.15;;;4.50;;
33184;SDS011;19550;42.872;25.494;2022-10-16T10:27:37;11.55;;;4.80;;
33184;SDS011;19550;42.872;25.494;2022-10-16T10:30:13;11.27;;;4.75;;
33184;SDS011;19550;42.872;25.494;2022-10-16T10:32:46;8.75;;;4.75;;
33184;SDS011;19550;42.872;25.494;2022-10-16T10:35:22;7.80;;;6.03;;
33184;SDS011;19550;42.872;25.494;2022-10-16T10:37:58;8.82;;;4.85;;
33184;SDS011;19550;42.872;25.494;2022-10-16T10:40:35;15.27;;;7.07;;
33184;SDS011;19550;42.872;25.494;2022-10-16T10:43:13;7.82;;;4.93;;
33184;SDS011;19550;42.872;25.494;2022-10-16T10:45:48;8.07;;;4.43;;
33184;SDS011;19550;42.872;25.494;2022-10-16T10:48:25;7.97;;;4.38;;
33184;SDS011;19550;42.872;25.494;2022-10-16T10:51:11;11.27;;;5.20;;
33184;SDS011;19550;42.872;25.494;2022-10-16T10:53:49;14.00;;;8.60;;
33184;SDS011;19550;42.872;25.494;2022-10-16T10:56:40;7.85;;;4.95;;
33184;SDS011;19550;42.872;25.494;2022-10-16T10:59:27;16.42;;;5.13;;
33184;SDS011;19550;42.872;25.494;2022-10-16T11:02:16;12.18;;;5.07;;
33184;SDS011;19550;42.872;25.494;2022-10-16T11:05:02;8.80;;;5.15;;
33184;SDS011;19550;42.872;25.494;2022-10-16T11:07:48;6.45;;;4.22;;
33184;SDS011;19550;42.872;25.494;2022-10-16T11:10:20;17.50;;;10.77;;
33184;SDS011;19550;42.872;25.494;2022-10-16T11:12:52;9.57;;;5.25;;
33184;SDS011;19550;42.872;25.494;2022-10-16T11:15:24;10.38;;;5.18;;
33184;SDS011;19550;42.872;25.494;2022-10-16T11:17:57;9.35;;;5.18;;
33184;SDS011;19550;42.872;25.494;2022-10-16T11:20:29;7.85;;;4.72;;
33184;SDS011;19550;42.872;25.494;2022-10-16T11:23:00;14.32;;;5.05;;
33184;SDS011;19550;42.872;25.494;2022-10-16T11:25:32;14.57;;;4.85;;
33184;SDS011;19550;42.872;25.494;2022-10-16T11:28:01;9.85;;;4.72;;
33184;SDS011;19550;42.872;25.494;2022-10-16T11:30:39;11.48;;;5.47;;
33184;SDS011;19550;42.872;25.494;2022-10-16T11:33:15;8.68;;;4.63;;
33184;SDS011;19550;42.872;25.494;2022-10-16T11:35:53;9.60;;;4.90;;
33184;SDS011;19550;42.872;25.494;2022-10-16T11:38:26;11.07;;;4.57;;
33184;SDS011;19550;42.872;25.494;2022-10-16T11:41:00;5.85;;;4.18;;
33184;SDS011;19550;42.872;25.494;2022-10-16T11:43:37;7.68;;;4.43;;
33184;SDS011;19550;42.872;25.494;2022-10-16T11:46:08;8.60;;;4.25;;
33184;SDS011;19550;42.872;25.494;2022-10-16T11:48:39;7.03;;;3.72;;
33184;SDS011;19550;42.872;25.494;2022-10-16T11:51:14;7.93;;;4.07;;
33184;SDS011;19550;42.872;25.494;2022-10-16T11:53:47;9.95;;;4.95;;
33184;SDS011;19550;42.872;25.494;2022-10-16T11:56:21;7.70;;;4.30;;
33184;SDS011;19550;42.872;25.494;2022-10-16T11:58:51;7.85;;;4.35;;
33184;SDS011;19550;42.872;25.494;2022-10-16T12:01:23;7.90;;;4.25;;
33184;SDS011;19550;42.872;25.494;2022-10-16T12:06:48;8.03;;;5.00;;
33184;SDS011;19550;42.872;25.494;2022-10-16T12:09:21;7.15;;;5.05;;
33184;SDS011;19550;42.872;25.494;2022-10-16T12:11:52;15.57;;;8.65;;
33184;SDS011;19550;42.872;25.494;2022-10-16T12:14:21;8.00;;;5.00;;
33184;SDS011;19550;42.872;25.494;2022-10-16T12:17:01;7.45;;;4.47;;
33184;SDS011;19550;42.872;25.494;2022-10-16T12:19:31;11.65;;;4.15;;
33184;SDS011;19550;42.872;25.494;2022-10-16T12:21:59;10.45;;;4.63;;
33184;SDS011;19550;42.872;25.494;2022-10-16T12:24:31;10.35;;;5.50;;
33184;SDS011;19550;42.872;25.494;2022-10-16T12:27:03;10.10;;;5.28;;
33184;SDS011;19550;42.872;25.494;2022-10-16T12:29:33;10.40;;;4.25;;
33184;SDS011;19550;42.872;25.494;2022-10-16T12:32:03;6.35;;;4.32;;
33184;SDS011;19550;42.872;25.494;2022-10-16T12:34:35;7.75;;;4.70;;
33184;SDS011;19550;42.872;25.494;2022-10-16T12:37:10;8.07;;;4.20;;
33184;SDS011;19550;42.872;25.494;2022-10-16T12:39:39;7.18;;;4.30;;
33184;SDS011;19550;42.872;25.494;2022-10-16T12:42:21;7.72;;;4.50;;
33184;SDS011;19550;42.872;25.494;2022-10-16T12:44:49;7.13;;;4.07;;
33184;SDS011;19550;42.872;25.494;2022-10-16T12:47:20;12.35;;;5.43;;
33184;SDS011;19550;42.872;25.494;2022-10-16T12:49:49;10.68;;;5.32;;
33184;SDS011;19550;42.872;25.494;2022-10-16T12:52:28;15.65;;;4.65;;
33184;SDS011;19550;42.872;25.494;2022-10-16T12:55:01;10.82;;;5.15;;
33184;SDS011;19550;42.872;25.494;2022-10-16T12:57:33;10.02;;;4.40;;
33184;SDS011;19550;42.872;25.494;2022-10-16T13:00:12;9.13;;;5.25;;
33184;SDS011;19550;42.872;25.494;2022-10-16T13:05:51;10.88;;;7.05;;
33184;SDS011;19550;42.872;25.494;2022-10-16T13:08:39;12.00;;;6.10;;
33184;SDS011;19550;42.872;25.494;2022-10-16T13:11:18;13.88;;;4.90;;
33184;SDS011;19550;42.872;25.494;2022-10-16T13:13:56;10.07;;;5.25;;
33184;SDS011;19550;42.872;25.494;2022-10-16T13:16:45;12.35;;;4.90;;
33184;SDS011;19550;42.872;25.494;2022-10-16T13:19:21;8.18;;;6.22;;
33184;SDS011;19550;42.872;25.494;2022-10-16T13:21:56;11.18;;;6.63;;
33184;SDS011;19550;42.872;25.494;2022-10-16T13:24:36;12.05;;;7.00;;
33184;SDS011;19550;42.872;25.494;2022-10-16T13:27:15;7.03;;;5.22;;
33184;SDS011;19550;42.872;25.494;2022-10-16T13:29:53;10.02;;;6.35;;
33184;SDS011;19550;42.872;25.494;2022-10-16T13:32:27;14.48;;;8.55;;
33184;SDS011;19550;42.872;25.494;2022-10-16T13:34:55;8.05;;;5.60;;
33184;SDS011;19550;42.872;25.494;2022-10-16T13:37:22;9.60;;;6.30;;
33184;SDS011;19550;42.872;25.494;2022-10-16T13:39:50;10.02;;;5.95;;
33184;SDS011;19550;42.872;25.494;2022-10-16T13:42:20;10.40;;;6.38;;
33184;SDS011;19550;42.872;25.494;2022-10-16T13:44:53;13.35;;;5.95;;
33184;SDS011;19550;42.872;25.494;2022-10-16T13:49:58;7.90;;;5.82;;
33184;SDS011;19550;42.872;25.494;2022-10-16T13:52:26;8.23;;;5.68;;
33184;SDS011;19550;42.872;25.494;2022-10-16T13:54:53;13.70;;;6.40;;
33184;SDS011;19550;42.872;25.494;2022-10-16T13:57:22;12.98;;;6.20;;
33184;SDS011;19550;42.872;25.494;2022-10-16T13:59:50;12.57;;;5.53;;
33184;SDS011;19550;42.872;25.494;2022-10-16T14:02:20;8.95;;;5.78;;
33184;SDS011;19550;42.872;25.494;2022-10-16T14:04:51;8.30;;;5.97;;
33184;SDS011;19550;42.872;25.494;2022-10-16T14:07:21;13.25;;;6.93;;
33184;SDS011;19550;42.872;25.494;2022-10-16T14:09:51;7.93;;;5.68;;
33184;SDS011;19550;42.872;25.494;2022-10-16T14:12:19;10.32;;;6.18;;
33184;SDS011;19550;42.872;25.494;2022-10-16T14:14:49;13.80;;;7.75;;
33184;SDS011;19550;42.872;25.494;2022-10-16T14:17:21;12.95;;;7.07;;
33184;SDS011;19550;42.872;25.494;2022-10-16T14:19:51;10.50;;;5.82;;
33184;SDS011;19550;42.872;25.494;2022-10-16T14:22:24;9.75;;;6.65;;
33184;SDS011;19550;42.872;25.494;2022-10-16T14:24:55;20.23;;;9.93;;
33184;SDS011;19550;42.872;25.494;2022-10-16T14:27:27;99.18;;;44.83;;
33184;SDS011;19550;42.872;25.494;2022-10-16T14:30:05;14.77;;;7.88;;
33184;SDS011;19550;42.872;25.494;2022-10-16T14:32:41;18.98;;;5.75;;
33184;SDS011;19550;42.872;25.494;2022-10-16T14:35:26;33.90;;;9.37;;
33184;SDS011;19550;42.872;25.494;2022-10-16T14:37:56;33.90;;;9.95;;
33184;SDS011;19550;42.872;25.494;2022-10-16T14:40:25;16.02;;;7.32;;
33184;SDS011;19550;42.872;25.494;2022-10-16T14:42:54;26.70;;;8.40;;
33184;SDS011;19550;42.872;25.494;2022-10-16T14:45:21;17.17;;;7.47;;